sensor_id;sensor_type;location;lat;lon;timestamp;temperature;humidity
24252;DHT22;12380;51.118;4.176;2022-08-19T00:00:36;18.80;99.90
24252;DHT22;12380;51.118;4.176;2022-08-19T00:03:03;18.80;99.90
24252;DHT22;12380;51.118;4.176;2022-08-19T00:05:32;18.90;99.90
24252;DHT22;12380;51.118;4.176;2022-08-19T00:07:58;18.90;99.90
24252;DHT22;12380;51.118;4.176;2022-08-19T00:10:24;18.80;99.90
24252;DHT22;12380;51.118;4.176;2022-08-19T00:12:50;18.90;99.90
24252;DHT22;12380;51.118;4.176;2022-08-19T00:15:18;18.70;99.90
24252;DHT22;12380;51.118;4.176;2022-08-19T00:17:45;18.70;99.90
24252;DHT22;12380;51.118;4.176;2022-08-19T00:20:14;18.90;99.90
24252;DHT22;12380;51.118;4.176;2022-08-19T00:22:43;19.00;99.90
24252;DHT22;12380;51.118;4.176;2022-08-19T00:25:10;19.00;99.90
24252;DHT22;12380;51.118;4.176;2022-08-19T00:27:37;18.90;99.90
24252;DHT22;12380;51.118;4.176;2022-08-19T00:30:05;18.80;99.90
24252;DHT22;12380;51.118;4.176;2022-08-19T00:32:31;18.80;99.90
24252;DHT22;12380;51.118;4.176;2022-08-19T00:34:57;18.80;99.90
24252;DHT22;12380;51.118;4.176;2022-08-19T00:37:24;18.80;99.90
24252;DHT22;12380;51.118;4.176;2022-08-19T00:39:52;18.80;99.90
24252;DHT22;12380;51.118;4.176;2022-08-19T00:42:19;18.70;99.90
24252;DHT22;12380;51.118;4.176;2022-08-19T00:44:48;18.60;99.90
24252;DHT22;12380;51.118;4.176;2022-08-19T00:47:14;18.70;99.90
24252;DHT22;12380;51.118;4.176;2022-08-19T00:49:44;18.80;99.90
24252;DHT22;12380;51.118;4.176;2022-08-19T00:52:16;18.60;99.90
24252;DHT22;12380;51.118;4.176;2022-08-19T00:54:47;18.60;99.90
24252;DHT22;12380;51.118;4.176;2022-08-19T00:57:17;18.70;99.90
24252;DHT22;12380;51.118;4.176;2022-08-19T00:59:46;18.70;99.90
24252;DHT22;12380;51.118;4.176;2022-08-19T01:02:14;18.60;99.90
24252;DHT22;12380;51.118;4.176;2022-08-19T01:04:41;18.40;99.90
24252;DHT22;12380;51.118;4.176;2022-08-19T01:07:07;18.40;99.90
24252;DHT22;12380;51.118;4.176;2022-08-19T01:09:33;18.40;99.90
24252;DHT22;12380;51.118;4.176;2022-08-19T01:12:00;18.50;99.90
24252;DHT22;12380;51.118;4.176;2022-08-19T01:14:26;18.40;99.90
24252;DHT22;12380;51.118;4.176;2022-08-19T01:16:55;18.50;99.90
24252;DHT22;12380;51.118;4.176;2022-08-19T01:19:35;18.50;99.90
24252;DHT22;12380;51.118;4.176;2022-08-19T01:22:12;18.50;99.90
24252;DHT22;12380;51.118;4.176;2022-08-19T01:24:39;18.50;99.90
24252;DHT22;12380;51.118;4.176;2022-08-19T01:27:05;18.50;99.90
24252;DHT22;12380;51.118;4.176;2022-08-19T01:29:31;18.60;99.90
24252;DHT22;12380;51.118;4.176;2022-08-19T01:31:58;18.60;99.90
24252;DHT22;12380;51.118;4.176;2022-08-19T01:34:24;18.60;99.90
24252;DHT22;12380;51.118;4.176;2022-08-19T01:36:50;18.50;99.90
24252;DHT22;12380;51.118;4.176;2022-08-19T01:39:24;18.50;99.90
24252;DHT22;12380;51.118;4.176;2022-08-19T01:41:53;18.50;99.90
24252;DHT22;12380;51.118;4.176;2022-08-19T01:44:20;18.50;99.90
24252;DHT22;12380;51.118;4.176;2022-08-19T01:46:52;18.40;99.90
24252;DHT22;12380;51.118;4.176;2022-08-19T01:49:20;18.30;99.90
24252;DHT22;12380;51.118;4.176;2022-08-19T01:51:47;18.30;99.90
24252;DHT22;12380;51.118;4.176;2022-08-19T01:54:14;18.30;99.90
24252;DHT22;12380;51.118;4.176;2022-08-19T01:56:43;18.30;99.90
24252;DHT22;12380;51.118;4.176;2022-08-19T01:59:14;18.40;99.90
24252;DHT22;12380;51.118;4.176;2022-08-19T02:01:41;18.40;99.90
24252;DHT22;12380;51.118;4.176;2022-08-19T02:04:10;18.40;99.90
24252;DHT22;12380;51.118;4.176;2022-08-19T02:06:36;18.30;99.90
24252;DHT22;12380;51.118;4.176;2022-08-19T02:09:07;18.20;99.90
24252;DHT22;12380;51.118;4.176;2022-08-19T02:11:35;18.20;99.90
24252;DHT22;12380;51.118;4.176;2022-08-19T02:14:04;18.10;99.90
24252;DHT22;12380;51.118;4.176;2022-08-19T02:16:32;17.90;99.90
24252;DHT22;12380;51.118;4.176;2022-08-19T02:18:59;17.80;99.90
24252;DHT22;12380;51.118;4.176;2022-08-19T02:21:26;17.90;99.90
24252;DHT22;12380;51.118;4.176;2022-08-19T02:23:52;17.90;99.90
24252;DHT22;12380;51.118;4.176;2022-08-19T02:26:19;17.90;99.90
24252;DHT22;12380;51.118;4.176;2022-08-19T02:28:45;17.90;99.90
24252;DHT22;12380;51.118;4.176;2022-08-19T02:31:13;17.90;99.90
24252;DHT22;12380;51.118;4.176;2022-08-19T02:33:40;17.80;99.90
24252;DHT22;12380;51.118;4.176;2022-08-19T02:36:08;17.80;99.90
24252;DHT22;12380;51.118;4.176;2022-08-19T02:38:37;17.80;99.90
24252;DHT22;12380;51.118;4.176;2022-08-19T02:41:11;17.80;99.90
24252;DHT22;12380;51.118;4.176;2022-08-19T02:43:38;17.80;99.90
24252;DHT22;12380;51.118;4.176;2022-08-19T02:46:16;17.80;99.90
24252;DHT22;12380;51.118;4.176;2022-08-19T02:48:50;17.90;99.90
24252;DHT22;12380;51.118;4.176;2022-08-19T02:51:24;17.90;99.90
24252;DHT22;12380;51.118;4.176;2022-08-19T02:53:50;17.80;99.90
24252;DHT22;12380;51.118;4.176;2022-08-19T02:56:18;17.70;99.90
24252;DHT22;12380;51.118;4.176;2022-08-19T02:58:44;17.70;99.90
24252;DHT22;12380;51.118;4.176;2022-08-19T03:01:11;17.60;99.90
24252;DHT22;12380;51.118;4.176;2022-08-19T03:03:44;17.70;99.90
24252;DHT22;12380;51.118;4.176;2022-08-19T03:06:15;17.80;99.90
24252;DHT22;12380;51.118;4.176;2022-08-19T03:08:44;17.70;99.90
24252;DHT22;12380;51.118;4.176;2022-08-19T03:11:19;17.70;99.90
24252;DHT22;12380;51.118;4.176;2022-08-19T03:13:46;17.60;99.90
24252;DHT22;12380;51.118;4.176;2022-08-19T03:16:15;17.60;99.90
24252;DHT22;12380;51.118;4.176;2022-08-19T03:18:42;17.70;99.90
24252;DHT22;12380;51.118;4.176;2022-08-19T03:21:15;17.60;99.90
24252;DHT22;12380;51.118;4.176;2022-08-19T03:23:42;17.50;99.90
24252;DHT22;12380;51.118;4.176;2022-08-19T03:26:12;17.50;99.90
24252;DHT22;12380;51.118;4.176;2022-08-19T03:28:40;17.30;99.90
24252;DHT22;12380;51.118;4.176;2022-08-19T03:31:16;17.20;99.90
24252;DHT22;12380;51.118;4.176;2022-08-19T03:33:41;17.30;99.90
24252;DHT22;12380;51.118;4.176;2022-08-19T03:36:13;17.30;99.90
24252;DHT22;12380;51.118;4.176;2022-08-19T03:38:45;17.20;99.90
24252;DHT22;12380;51.118;4.176;2022-08-19T03:41:15;17.10;99.90
24252;DHT22;12380;51.118;4.176;2022-08-19T03:43:42;17.20;99.90
24252;DHT22;12380;51.118;4.176;2022-08-19T03:46:10;17.20;99.90
24252;DHT22;12380;51.118;4.176;2022-08-19T03:48:37;17.20;99.90
24252;DHT22;12380;51.118;4.176;2022-08-19T03:51:04;17.30;99.90
24252;DHT22;12380;51.118;4.176;2022-08-19T03:53:31;17.20;99.90
24252;DHT22;12380;51.118;4.176;2022-08-19T03:55:58;17.30;99.90
24252;DHT22;12380;51.118;4.176;2022-08-19T03:58:28;17.20;99.90
24252;DHT22;12380;51.118;4.176;2022-08-19T04:00:56;17.20;99.90
24252;DHT22;12380;51.118;4.176;2022-08-19T04:03:22;17.20;99.90
24252;DHT22;12380;51.118;4.176;2022-08-19T04:05:50;17.20;99.90
24252;DHT22;12380;51.118;4.176;2022-08-19T04:08:17;17.20;99.90
24252;DHT22;12380;51.118;4.176;2022-08-19T04:10:47;17.20;99.90
24252;DHT22;12380;51.118;4.176;2022-08-19T04:13:17;17.20;99.90
24252;DHT22;12380;51.118;4.176;2022-08-19T04:15:45;17.20;99.90
24252;DHT22;12380;51.118;4.176;2022-08-19T04:18:11;17.10;99.90
24252;DHT22;12380;51.118;4.176;2022-08-19T04:20:45;17.10;99.90
24252;DHT22;12380;51.118;4.176;2022-08-19T04:23:16;17.00;99.90
24252;DHT22;12380;51.118;4.176;2022-08-19T04:25:44;17.10;99.90
24252;DHT22;12380;51.118;4.176;2022-08-19T04:28:12;17.00;99.90
24252;DHT22;12380;51.118;4.176;2022-08-19T04:30:50;17.10;99.90
24252;DHT22;12380;51.118;4.176;2022-08-19T04:33:20;17.20;99.90
24252;DHT22;12380;51.118;4.176;2022-08-19T04:35:47;17.20;99.90
24252;DHT22;12380;51.118;4.176;2022-08-19T04:38:20;17.10;99.90
24252;DHT22;12380;51.118;4.176;2022-08-19T04:40:49;17.20;99.90
24252;DHT22;12380;51.118;4.176;2022-08-19T04:43:37;17.10;99.90
24252;DHT22;12380;51.118;4.176;2022-08-19T04:46:10;17.00;99.90
24252;DHT22;12380;51.118;4.176;2022-08-19T04:48:36;16.90;99.90
24252;DHT22;12380;51.118;4.176;2022-08-19T04:51:07;16.90;99.90
24252;DHT22;12380;51.118;4.176;2022-08-19T04:53:35;17.00;99.90
24252;DHT22;12380;51.118;4.176;2022-08-19T04:56:12;17.10;99.90
24252;DHT22;12380;51.118;4.176;2022-08-19T04:58:42;17.00;99.90
24252;DHT22;12380;51.118;4.176;2022-08-19T05:01:22;16.90;99.90
24252;DHT22;12380;51.118;4.176;2022-08-19T05:03:48;17.00;99.90
24252;DHT22;12380;51.118;4.176;2022-08-19T05:06:17;16.90;99.90
24252;DHT22;12380;51.118;4.176;2022-08-19T05:08:44;17.00;99.90
24252;DHT22;12380;51.118;4.176;2022-08-19T05:11:23;16.80;99.90
24252;DHT22;12380;51.118;4.176;2022-08-19T05:13:50;16.70;99.90
24252;DHT22;12380;51.118;4.176;2022-08-19T05:16:18;16.80;99.90
24252;DHT22;12380;51.118;4.176;2022-08-19T05:18:45;16.80;99.90
24252;DHT22;12380;51.118;4.176;2022-08-19T05:21:30;16.70;99.90
24252;DHT22;12380;51.118;4.176;2022-08-19T05:24:15;16.80;99.90
24252;DHT22;12380;51.118;4.176;2022-08-19T05:26:45;16.90;99.90
24252;DHT22;12380;51.118;4.176;2022-08-19T05:29:18;16.90;99.90
24252;DHT22;12380;51.118;4.176;2022-08-19T05:31:45;17.00;99.90
24252;DHT22;12380;51.118;4.176;2022-08-19T05:34:12;17.00;99.90
24252;DHT22;12380;51.118;4.176;2022-08-19T05:36:42;17.00;99.90
24252;DHT22;12380;51.118;4.176;2022-08-19T05:39:14;17.20;99.90
24252;DHT22;12380;51.118;4.176;2022-08-19T05:41:45;17.30;99.90
24252;DHT22;12380;51.118;4.176;2022-08-19T05:44:12;17.20;99.90
24252;DHT22;12380;51.118;4.176;2022-08-19T05:46:38;17.20;99.90
24252;DHT22;12380;51.118;4.176;2022-08-19T05:49:08;17.20;99.90
24252;DHT22;12380;51.118;4.176;2022-08-19T05:51:35;17.20;99.90
24252;DHT22;12380;51.118;4.176;2022-08-19T05:54:03;17.30;99.90
24252;DHT22;12380;51.118;4.176;2022-08-19T05:56:31;17.50;99.90
24252;DHT22;12380;51.118;4.176;2022-08-19T05:58:57;17.40;99.90
24252;DHT22;12380;51.118;4.176;2022-08-19T06:01:25;17.70;99.90
24252;DHT22;12380;51.118;4.176;2022-08-19T06:03:54;17.60;99.90
24252;DHT22;12380;51.118;4.176;2022-08-19T06:06:22;17.60;99.90
24252;DHT22;12380;51.118;4.176;2022-08-19T06:08:48;17.70;99.90
24252;DHT22;12380;51.118;4.176;2022-08-19T06:11:23;17.70;99.90
24252;DHT22;12380;51.118;4.176;2022-08-19T06:13:51;17.70;99.90
24252;DHT22;12380;51.118;4.176;2022-08-19T06:16:21;17.60;99.90
24252;DHT22;12380;51.118;4.176;2022-08-19T06:18:55;17.60;99.90
24252;DHT22;12380;51.118;4.176;2022-08-19T06:21:25;17.60;99.90
24252;DHT22;12380;51.118;4.176;2022-08-19T06:23:55;17.80;99.90
24252;DHT22;12380;51.118;4.176;2022-08-19T06:26:21;18.00;99.90
24252;DHT22;12380;51.118;4.176;2022-08-19T06:28:48;17.90;99.90
24252;DHT22;12380;51.118;4.176;2022-08-19T06:31:20;17.80;99.90
24252;DHT22;12380;51.118;4.176;2022-08-19T06:33:47;17.90;99.90
24252;DHT22;12380;51.118;4.176;2022-08-19T06:36:29;18.00;99.90
24252;DHT22;12380;51.118;4.176;2022-08-19T06:38:57;18.20;99.90
24252;DHT22;12380;51.118;4.176;2022-08-19T06:41:25;18.30;99.90
24252;DHT22;12380;51.118;4.176;2022-08-19T06:43:51;18.20;99.90
24252;DHT22;12380;51.118;4.176;2022-08-19T06:46:17;18.20;99.90
24252;DHT22;12380;51.118;4.176;2022-08-19T06:48:47;18.30;99.90
24252;DHT22;12380;51.118;4.176;2022-08-19T06:51:17;18.50;99.90
24252;DHT22;12380;51.118;4.176;2022-08-19T06:54:02;18.60;99.90
24252;DHT22;12380;51.118;4.176;2022-08-19T06:56:32;18.70;99.90
24252;DHT22;12380;51.118;4.176;2022-08-19T06:59:04;18.80;99.90
24252;DHT22;12380;51.118;4.176;2022-08-19T07:01:44;18.70;99.90
24252;DHT22;12380;51.118;4.176;2022-08-19T07:04:13;18.60;99.90
24252;DHT22;12380;51.118;4.176;2022-08-19T07:06:40;18.70;99.90
24252;DHT22;12380;51.118;4.176;2022-08-19T07:09:07;18.70;99.90
24252;DHT22;12380;51.118;4.176;2022-08-19T07:11:33;18.70;99.90
24252;DHT22;12380;51.118;4.176;2022-08-19T07:14:00;18.90;99.90
24252;DHT22;12380;51.118;4.176;2022-08-19T07:16:27;19.00;99.90
24252;DHT22;12380;51.118;4.176;2022-08-19T07:18:56;19.20;99.90
24252;DHT22;12380;51.118;4.176;2022-08-19T07:21:27;19.20;99.90
24252;DHT22;12380;51.118;4.176;2022-08-19T07:23:55;19.20;99.90
24252;DHT22;12380;51.118;4.176;2022-08-19T07:26:28;19.40;99.90
24252;DHT22;12380;51.118;4.176;2022-08-19T07:28:55;19.40;99.90
24252;DHT22;12380;51.118;4.176;2022-08-19T07:31:26;19.60;99.90
24252;DHT22;12380;51.118;4.176;2022-08-19T07:33:54;19.60;99.90
24252;DHT22;12380;51.118;4.176;2022-08-19T07:36:23;19.70;99.90
24252;DHT22;12380;51.118;4.176;2022-08-19T07:38:50;19.70;99.90
24252;DHT22;12380;51.118;4.176;2022-08-19T07:41:24;19.50;99.90
24252;DHT22;12380;51.118;4.176;2022-08-19T07:43:51;19.60;99.90
24252;DHT22;12380;51.118;4.176;2022-08-19T07:46:18;19.60;99.90
24252;DHT22;12380;51.118;4.176;2022-08-19T07:48:46;19.60;99.90
24252;DHT22;12380;51.118;4.176;2022-08-19T07:51:16;19.60;99.90
24252;DHT22;12380;51.118;4.176;2022-08-19T07:53:43;19.80;99.90
24252;DHT22;12380;51.118;4.176;2022-08-19T07:56:11;19.80;99.90
24252;DHT22;12380;51.118;4.176;2022-08-19T07:58:40;19.80;99.90
24252;DHT22;12380;51.118;4.176;2022-08-19T08:01:09;19.90;99.90
24252;DHT22;12380;51.118;4.176;2022-08-19T08:03:39;20.00;99.90
24252;DHT22;12380;51.118;4.176;2022-08-19T08:06:24;19.90;99.90
24252;DHT22;12380;51.118;4.176;2022-08-19T08:09:34;20.10;99.90
24252;DHT22;12380;51.118;4.176;2022-08-19T08:14:31;20.20;99.90
24252;DHT22;12380;51.118;4.176;2022-08-19T08:16:59;20.20;99.90
24252;DHT22;12380;51.118;4.176;2022-08-19T08:19:26;20.30;99.90
24252;DHT22;12380;51.118;4.176;2022-08-19T08:21:57;20.30;99.90
24252;DHT22;12380;51.118;4.176;2022-08-19T08:24:26;20.40;99.90
24252;DHT22;12380;51.118;4.176;2022-08-19T08:26:52;20.40;99.90
24252;DHT22;12380;51.118;4.176;2022-08-19T08:29:17;20.60;99.90
24252;DHT22;12380;51.118;4.176;2022-08-19T08:31:45;20.70;99.90
24252;DHT22;12380;51.118;4.176;2022-08-19T08:34:12;20.60;99.90
24252;DHT22;12380;51.118;4.176;2022-08-19T08:36:44;20.60;99.90
24252;DHT22;12380;51.118;4.176;2022-08-19T08:39:19;20.50;99.90
24252;DHT22;12380;51.118;4.176;2022-08-19T08:41:53;20.70;99.90
24252;DHT22;12380;51.118;4.176;2022-08-19T08:44:39;20.70;99.90
24252;DHT22;12380;51.118;4.176;2022-08-19T08:47:15;20.60;99.90
24252;DHT22;12380;51.118;4.176;2022-08-19T08:49:56;20.60;99.90
24252;DHT22;12380;51.118;4.176;2022-08-19T08:52:37;20.50;99.90
24252;DHT22;12380;51.118;4.176;2022-08-19T08:55:13;20.40;99.90
24252;DHT22;12380;51.118;4.176;2022-08-19T09:00:21;20.50;99.90
24252;DHT22;12380;51.118;4.176;2022-08-19T09:02:49;20.60;99.90
24252;DHT22;12380;51.118;4.176;2022-08-19T09:05:15;20.70;99.90
24252;DHT22;12380;51.118;4.176;2022-08-19T09:08:08;20.60;99.90
24252;DHT22;12380;51.118;4.176;2022-08-19T09:10:39;20.60;99.90
24252;DHT22;12380;51.118;4.176;2022-08-19T09:16:28;20.50;99.90
24252;DHT22;12380;51.118;4.176;2022-08-19T09:18:49;20.60;99.90
24252;DHT22;12380;51.118;4.176;2022-08-19T09:21:20;20.60;99.90
24252;DHT22;12380;51.118;4.176;2022-08-19T09:23:48;20.70;99.90
24252;DHT22;12380;51.118;4.176;2022-08-19T09:26:20;20.70;99.90
24252;DHT22;12380;51.118;4.176;2022-08-19T09:28:53;20.70;99.90
24252;DHT22;12380;51.118;4.176;2022-08-19T09:31:27;20.80;99.90
24252;DHT22;12380;51.118;4.176;2022-08-19T09:33:54;20.90;99.90
24252;DHT22;12380;51.118;4.176;2022-08-19T09:36:26;20.90;99.90
24252;DHT22;12380;51.118;4.176;2022-08-19T09:38:53;21.00;99.90
24252;DHT22;12380;51.118;4.176;2022-08-19T09:41:21;21.10;99.90
24252;DHT22;12380;51.118;4.176;2022-08-19T09:43:49;20.90;99.90
24252;DHT22;12380;51.118;4.176;2022-08-19T09:46:18;20.90;99.90
24252;DHT22;12380;51.118;4.176;2022-08-19T09:48:49;20.80;99.90
24252;DHT22;12380;51.118;4.176;2022-08-19T09:51:22;20.70;99.90
24252;DHT22;12380;51.118;4.176;2022-08-19T09:53:50;20.80;99.90
24252;DHT22;12380;51.118;4.176;2022-08-19T09:56:21;20.90;99.90
24252;DHT22;12380;51.118;4.176;2022-08-19T09:58:47;20.90;99.90
24252;DHT22;12380;51.118;4.176;2022-08-19T10:01:25;20.90;99.90
24252;DHT22;12380;51.118;4.176;2022-08-19T10:03:54;20.90;99.90
24252;DHT22;12380;51.118;4.176;2022-08-19T10:06:21;21.10;99.90
24252;DHT22;12380;51.118;4.176;2022-08-19T10:08:49;21.00;99.90
24252;DHT22;12380;51.118;4.176;2022-08-19T10:11:15;21.20;99.90
24252;DHT22;12380;51.118;4.176;2022-08-19T10:13:44;21.30;99.90
24252;DHT22;12380;51.118;4.176;2022-08-19T10:16:24;21.50;99.90
24252;DHT22;12380;51.118;4.176;2022-08-19T10:18:51;21.70;99.90
24252;DHT22;12380;51.118;4.176;2022-08-19T10:21:19;21.90;99.90
24252;DHT22;12380;51.118;4.176;2022-08-19T10:23:49;22.00;99.90
24252;DHT22;12380;51.118;4.176;2022-08-19T10:26:26;22.10;99.90
24252;DHT22;12380;51.118;4.176;2022-08-19T10:28:53;22.20;99.90
24252;DHT22;12380;51.118;4.176;2022-08-19T10:31:22;21.90;99.90
24252;DHT22;12380;51.118;4.176;2022-08-19T10:33:49;21.80;99.90
24252;DHT22;12380;51.118;4.176;2022-08-19T10:36:21;21.90;99.90
24252;DHT22;12380;51.118;4.176;2022-08-19T10:38:50;21.90;99.90
24252;DHT22;12380;51.118;4.176;2022-08-19T10:41:21;22.00;99.90
24252;DHT22;12380;51.118;4.176;2022-08-19T10:43:55;21.80;99.90
24252;DHT22;12380;51.118;4.176;2022-08-19T10:46:23;21.70;99.90
24252;DHT22;12380;51.118;4.176;2022-08-19T10:48:49;21.80;99.90
24252;DHT22;12380;51.118;4.176;2022-08-19T10:51:16;22.00;99.90
24252;DHT22;12380;51.118;4.176;2022-08-19T10:54:01;22.30;99.90
24252;DHT22;12380;51.118;4.176;2022-08-19T10:56:28;22.70;99.90
24252;DHT22;12380;51.118;4.176;2022-08-19T10:59:14;23.10;99.90
24252;DHT22;12380;51.118;4.176;2022-08-19T11:01:41;23.10;99.90
24252;DHT22;12380;51.118;4.176;2022-08-19T11:04:07;23.20;99.90
24252;DHT22;12380;51.118;4.176;2022-08-19T11:06:36;23.10;99.90
24252;DHT22;12380;51.118;4.176;2022-08-19T11:09:06;22.80;99.90
24252;DHT22;12380;51.118;4.176;2022-08-19T11:11:33;22.40;99.90
24252;DHT22;12380;51.118;4.176;2022-08-19T11:14:08;22.30;99.90
24252;DHT22;12380;51.118;4.176;2022-08-19T11:16:38;22.50;99.90
24252;DHT22;12380;51.118;4.176;2022-08-19T11:19:10;22.60;99.90
24252;DHT22;12380;51.118;4.176;2022-08-19T11:21:38;22.80;99.90
24252;DHT22;12380;51.118;4.176;2022-08-19T11:24:08;23.00;99.90
24252;DHT22;12380;51.118;4.176;2022-08-19T11:26:35;23.30;99.90
24252;DHT22;12380;51.118;4.176;2022-08-19T11:29:03;23.60;99.90
24252;DHT22;12380;51.118;4.176;2022-08-19T11:31:32;23.50;99.90
24252;DHT22;12380;51.118;4.176;2022-08-19T11:34:00;23.60;99.90
24252;DHT22;12380;51.118;4.176;2022-08-19T11:36:27;23.60;99.90
24252;DHT22;12380;51.118;4.176;2022-08-19T11:38:53;23.60;99.90
24252;DHT22;12380;51.118;4.176;2022-08-19T11:41:21;23.80;99.90
24252;DHT22;12380;51.118;4.176;2022-08-19T11:43:49;23.90;99.90
24252;DHT22;12380;51.118;4.176;2022-08-19T11:46:17;24.10;99.90
24252;DHT22;12380;51.118;4.176;2022-08-19T11:48:43;24.20;99.90
24252;DHT22;12380;51.118;4.176;2022-08-19T11:51:15;24.40;99.90
24252;DHT22;12380;51.118;4.176;2022-08-19T11:53:41;24.40;99.90
24252;DHT22;12380;51.118;4.176;2022-08-19T11:56:08;24.80;99.90
24252;DHT22;12380;51.118;4.176;2022-08-19T11:58:38;24.80;99.90
24252;DHT22;12380;51.118;4.176;2022-08-19T12:01:08;25.00;99.90
24252;DHT22;12380;51.118;4.176;2022-08-19T12:03:35;24.80;99.90
24252;DHT22;12380;51.118;4.176;2022-08-19T12:06:10;24.60;99.90
24252;DHT22;12380;51.118;4.176;2022-08-19T12:08:38;24.50;99.90
24252;DHT22;12380;51.118;4.176;2022-08-19T12:11:04;24.50;99.90
24252;DHT22;12380;51.118;4.176;2022-08-19T12:13:34;24.30;99.90
24252;DHT22;12380;51.118;4.176;2022-08-19T12:16:00;24.50;99.90
24252;DHT22;12380;51.118;4.176;2022-08-19T12:18:29;24.50;99.90
24252;DHT22;12380;51.118;4.176;2022-08-19T12:20:57;24.70;99.90
24252;DHT22;12380;51.118;4.176;2022-08-19T12:23:25;24.70;99.90
24252;DHT22;12380;51.118;4.176;2022-08-19T12:25:54;24.60;99.90
24252;DHT22;12380;51.118;4.176;2022-08-19T12:28:23;24.20;99.90
24252;DHT22;12380;51.118;4.176;2022-08-19T12:30:50;24.30;99.90
24252;DHT22;12380;51.118;4.176;2022-08-19T12:33:17;24.20;99.90
24252;DHT22;12380;51.118;4.176;2022-08-19T12:35:47;24.20;99.90
24252;DHT22;12380;51.118;4.176;2022-08-19T12:38:13;24.10;99.90
24252;DHT22;12380;51.118;4.176;2022-08-19T12:40:40;24.00;99.90
24252;DHT22;12380;51.118;4.176;2022-08-19T12:43:07;23.90;99.90
24252;DHT22;12380;51.118;4.176;2022-08-19T12:45:33;24.30;99.90
24252;DHT22;12380;51.118;4.176;2022-08-19T12:47:59;24.50;99.90
24252;DHT22;12380;51.118;4.176;2022-08-19T12:50:25;24.60;99.90
24252;DHT22;12380;51.118;4.176;2022-08-19T12:52:51;24.70;99.90
24252;DHT22;12380;51.118;4.176;2022-08-19T12:55:17;24.90;99.90
24252;DHT22;12380;51.118;4.176;2022-08-19T12:57:44;25.00;99.90
24252;DHT22;12380;51.118;4.176;2022-08-19T13:00:13;24.90;99.90
24252;DHT22;12380;51.118;4.176;2022-08-19T13:02:45;25.00;99.90
24252;DHT22;12380;51.118;4.176;2022-08-19T13:05:17;25.30;99.90
24252;DHT22;12380;51.118;4.176;2022-08-19T13:07:45;26.00;99.90
24252;DHT22;12380;51.118;4.176;2022-08-19T13:10:13;26.00;99.90
24252;DHT22;12380;51.118;4.176;2022-08-19T13:12:44;26.20;99.90
24252;DHT22;12380;51.118;4.176;2022-08-19T13:15:11;26.70;99.90
24252;DHT22;12380;51.118;4.176;2022-08-19T13:17:38;26.80;99.90
24252;DHT22;12380;51.118;4.176;2022-08-19T13:20:05;26.30;99.90
24252;DHT22;12380;51.118;4.176;2022-08-19T13:22:33;26.00;99.90
24252;DHT22;12380;51.118;4.176;2022-08-19T13:24:59;26.30;99.90
24252;DHT22;12380;51.118;4.176;2022-08-19T13:27:24;26.30;99.90
24252;DHT22;12380;51.118;4.176;2022-08-19T13:29:50;26.10;99.90
24252;DHT22;12380;51.118;4.176;2022-08-19T13:32:34;25.60;99.90
24252;DHT22;12380;51.118;4.176;2022-08-19T13:35:18;25.20;99.90
24252;DHT22;12380;51.118;4.176;2022-08-19T13:37:44;25.30;99.90
24252;DHT22;12380;51.118;4.176;2022-08-19T13:40:16;25.10;99.90
24252;DHT22;12380;51.118;4.176;2022-08-19T13:42:47;24.80;99.90
24252;DHT22;12380;51.118;4.176;2022-08-19T13:45:15;24.60;99.90
24252;DHT22;12380;51.118;4.176;2022-08-19T13:47:51;24.70;99.90
24252;DHT22;12380;51.118;4.176;2022-08-19T13:50:20;24.70;99.90
24252;DHT22;12380;51.118;4.176;2022-08-19T13:52:48;24.70;99.90
24252;DHT22;12380;51.118;4.176;2022-08-19T13:55:15;24.60;99.90
24252;DHT22;12380;51.118;4.176;2022-08-19T13:57:41;24.70;99.90
24252;DHT22;12380;51.118;4.176;2022-08-19T14:00:12;24.50;99.90
24252;DHT22;12380;51.118;4.176;2022-08-19T14:02:39;24.60;99.90
24252;DHT22;12380;51.118;4.176;2022-08-19T14:05:08;24.60;99.90
24252;DHT22;12380;51.118;4.176;2022-08-19T14:07:34;24.70;99.90
24252;DHT22;12380;51.118;4.176;2022-08-19T14:10:00;24.70;99.90
24252;DHT22;12380;51.118;4.176;2022-08-19T14:12:30;24.60;99.90
24252;DHT22;12380;51.118;4.176;2022-08-19T14:14:58;24.60;99.90
24252;DHT22;12380;51.118;4.176;2022-08-19T14:17:23;24.60;99.90
24252;DHT22;12380;51.118;4.176;2022-08-19T14:20:02;24.10;99.90
24252;DHT22;12380;51.118;4.176;2022-08-19T14:22:33;23.10;99.90
24252;DHT22;12380;51.118;4.176;2022-08-19T14:25:02;21.90;99.90
24252;DHT22;12380;51.118;4.176;2022-08-19T14:27:28;21.50;99.90
24252;DHT22;12380;51.118;4.176;2022-08-19T14:29:57;21.00;99.90
24252;DHT22;12380;51.118;4.176;2022-08-19T14:32:22;20.80;99.90
24252;DHT22;12380;51.118;4.176;2022-08-19T14:34:52;20.80;99.90
24252;DHT22;12380;51.118;4.176;2022-08-19T14:37:19;20.70;99.90
24252;DHT22;12380;51.118;4.176;2022-08-19T14:39:44;20.90;99.90
24252;DHT22;12380;51.118;4.176;2022-08-19T14:42:11;21.40;99.90
24252;DHT22;12380;51.118;4.176;2022-08-19T14:44:41;21.90;99.90
24252;DHT22;12380;51.118;4.176;2022-08-19T14:47:08;22.30;99.90
24252;DHT22;12380;51.118;4.176;2022-08-19T14:49:35;22.60;99.90
24252;DHT22;12380;51.118;4.176;2022-08-19T14:52:05;22.80;99.90
24252;DHT22;12380;51.118;4.176;2022-08-19T14:54:32;22.80;99.90
24252;DHT22;12380;51.118;4.176;2022-08-19T14:56:58;22.90;99.90
24252;DHT22;12380;51.118;4.176;2022-08-19T14:59:24;23.10;99.90
24252;DHT22;12380;51.118;4.176;2022-08-19T15:01:53;22.90;99.90
24252;DHT22;12380;51.118;4.176;2022-08-19T15:04:19;22.80;99.90
24252;DHT22;12380;51.118;4.176;2022-08-19T15:06:46;22.90;99.90
24252;DHT22;12380;51.118;4.176;2022-08-19T15:09:12;23.10;99.90
24252;DHT22;12380;51.118;4.176;2022-08-19T15:11:38;23.20;99.90
24252;DHT22;12380;51.118;4.176;2022-08-19T15:14:04;22.90;99.90
24252;DHT22;12380;51.118;4.176;2022-08-19T15:16:33;23.20;99.90
24252;DHT22;12380;51.118;4.176;2022-08-19T15:19:00;23.50;99.90
24252;DHT22;12380;51.118;4.176;2022-08-19T15:21:27;24.10;99.90
24252;DHT22;12380;51.118;4.176;2022-08-19T15:23:55;24.50;99.90
24252;DHT22;12380;51.118;4.176;2022-08-19T15:26:25;24.90;99.90
24252;DHT22;12380;51.118;4.176;2022-08-19T15:28:53;24.90;99.90
24252;DHT22;12380;51.118;4.176;2022-08-19T15:31:20;24.60;99.90
24252;DHT22;12380;51.118;4.176;2022-08-19T15:33:48;25.00;99.90
24252;DHT22;12380;51.118;4.176;2022-08-19T15:36:15;24.90;99.90
24252;DHT22;12380;51.118;4.176;2022-08-19T15:38:41;25.10;99.90
24252;DHT22;12380;51.118;4.176;2022-08-19T15:41:17;25.00;99.90
24252;DHT22;12380;51.118;4.176;2022-08-19T15:44:10;25.00;99.90
24252;DHT22;12380;51.118;4.176;2022-08-19T15:46:39;25.00;99.90
24252;DHT22;12380;51.118;4.176;2022-08-19T15:49:06;24.50;99.90
24252;DHT22;12380;51.118;4.176;2022-08-19T15:51:34;24.30;99.90